Lowesville, North Carolina
Current Conditions -  °F | °C
As of 10:35 PM on Sunday 21 Dec 2014 (Local Time) from KIPJ Reporting Station
Overcast Overcast  
Wind Chill: 45°   Ceiling: 3600
Heat Index: 45°   Visibility: 10mi
Dew Point: 37°   Wind: 3mph
Humidity: 73%   Direction: 350°N
Pressure: 30.2"   Gusts: NA
Location:  35.3691°N, 81.0654°W
Report Text: KIPJ 220335Z AUTO 35003KT 10SM OVC036 07/03 A3020 RMK AO2 T00700025
Loading
Personal Weather Stations






























Interactive Weather Map New forecast layout! Learn more

10-Day Weather Forecast

Advertisements
Track Severe Weather on mobile